Time;durP1;ratioP1;P1;durP2;ratioP2;P2;SDS_P1;SDS_P2;PMS_P1;PMS_P2;Temp;Humidity;BMP_temperature;BMP_pressure;BME280_temperature;BME280_humidity;BME280_pressure;Samples;Min_cycle;Max_cycle;Signal;HPM_P1;HPM_P2
2023/06/21 00:01:03;;;;;;;14.80;8.63;;;;;;;;;;5137618;27;20204;-56
2023/06/21 00:03:37;;;;;;;11.82;8.48;;;;;;;;;;5137262;27;20197;-53
2023/06/21 00:06:05;;;;;;;13.27;8.80;;;;;;;;;;5137095;27;20232;-56
2023/06/21 00:08:32;;;;;;;13.60;8.57;;;;;;;;;;5137345;27;20213;-55
2023/06/21 00:11:00;;;;;;;12.40;8.10;;;;;;;;;;5137303;27;20201;-56
2023/06/21 00:13:27;;;;;;;13.38;7.85;;;;;;;;;;5137643;27;20201;-56
2023/06/21 00:15:54;;;;;;;12.30;8.50;;;;;;;;;;5137105;27;20261;-56
2023/06/21 00:18:22;;;;;;;11.50;8.55;;;;;;;;;;5136947;27;20202;-55
2023/06/21 00:20:49;;;;;;;11.48;8.15;;;;;;;;;;5137231;27;20202;-57
2023/06/21 00:23:18;;;;;;;15.30;7.57;;;;;;;;;;5137266;27;20197;-56
2023/06/21 00:25:45;;;;;;;15.45;8.18;;;;;;;;;;5137090;27;20225;-56
2023/06/21 00:28:12;;;;;;;14.05;7.72;;;;;;;;;;5136857;27;20225;-55
2023/06/21 00:30:39;;;;;;;14.90;7.38;;;;;;;;;;5135409;27;20205;-56
2023/06/21 00:33:06;;;;;;;12.88;7.70;;;;;;;;;;5118405;27;20212;-55
2023/06/21 00:35:34;;;;;;;11.82;8.07;;;;;;;;;;5136692;27;20588;-56
2023/06/21 00:38:02;;;;;;;13.18;9.68;;;;;;;;;;5118473;27;20197;-55
2023/06/21 00:40:30;;;;;;;16.70;8.88;;;;;;;;;;5136668;27;20206;-56
2023/06/21 00:43:03;;;;;;;9.98;7.38;;;;;;;;;;5136661;27;20209;-55
2023/06/21 00:45:40;;;;;;;12.77;7.97;;;;;;;;;;5118352;27;20201;-55
2023/06/21 00:48:07;;;;;;;14.57;8.25;;;;;;;;;;5136463;27;20204;-54
2023/06/21 00:50:38;;;;;;;18.80;8.00;;;;;;;;;;5136620;27;20209;-56
2023/06/21 00:53:06;;;;;;;12.13;8.23;;;;;;;;;;5118427;27;20198;-56
2023/06/21 00:55:33;;;;;;;11.77;8.45;;;;;;;;;;5118148;27;20201;-56
2023/06/21 00:58:01;;;;;;;11.88;8.57;;;;;;;;;;5136188;27;20201;-56
2023/06/21 01:00:29;;;;;;;10.02;7.38;;;;;;;;;;5117965;27;20246;-54
2023/06/21 01:02:58;;;;;;;11.95;7.65;;;;;;;;;;5117820;27;20203;-55
2023/06/21 01:05:25;;;;;;;11.13;7.65;;;;;;;;;;5118092;27;20233;-55
2023/06/21 01:08:03;;;;;;;12.18;6.70;;;;;;;;;;5101017;27;20221;-55
2023/06/21 01:10:57;;;;;;;14.43;6.80;;;;;;;;;;5117714;27;20197;-54
2023/06/21 01:13:49;;;;;;;9.30;6.50;;;;;;;;;;5136174;27;20202;-55
2023/06/21 01:16:18;;;;;;;14.75;8.00;;;;;;;;;;5117969;27;20205;-56
2023/06/21 01:18:45;;;;;;;12.20;8.13;;;;;;;;;;5135693;27;20546;-55
2023/06/21 01:21:22;;;;;;;8.93;6.57;;;;;;;;;;5118050;27;20201;-54
2023/06/21 01:24:31;;;;;;;13.88;7.75;;;;;;;;;;5118406;27;20234;-54
2023/06/21 01:27:12;;;;;;;14.98;6.85;;;;;;;;;;5100441;27;20225;-56
2023/06/21 01:29:40;;;;;;;9.27;6.90;;;;;;;;;;5135531;27;20288;-55
2023/06/21 01:32:10;;;;;;;12.02;7.88;;;;;;;;;;5117471;27;20615;-56
2023/06/21 01:34:38;;;;;;;10.27;7.15;;;;;;;;;;5117770;27;20671;-55
2023/06/21 01:37:08;;;;;;;11.68;7.40;;;;;;;;;;5117296;27;20217;-55
2023/06/21 01:39:36;;;;;;;11.60;8.05;;;;;;;;;;5100846;27;20185;-56
2023/06/21 01:42:05;;;;;;;12.73;6.70;;;;;;;;;;5116681;27;20197;-54
2023/06/21 01:44:33;;;;;;;10.00;7.03;;;;;;;;;;5135025;27;20651;-55
2023/06/21 01:47:00;;;;;;;13.23;6.65;;;;;;;;;;5117198;27;20237;-53
2023/06/21 01:49:29;;;;;;;8.77;5.57;;;;;;;;;;5117085;27;20246;-53
2023/06/21 01:51:57;;;;;;;14.98;5.75;;;;;;;;;;5116772;27;20194;-55
2023/06/21 01:54:25;;;;;;;16.90;6.68;;;;;;;;;;5117059;27;20254;-55
2023/06/21 01:57:00;;;;;;;12.70;7.60;;;;;;;;;;5135008;27;20205;-54
2023/06/21 01:59:28;;;;;;;12.13;7.05;;;;;;;;;;5100295;27;20204;-54
2023/06/21 02:01:57;;;;;;;12.70;6.78;;;;;;;;;;5099926;27;20205;-55
2023/06/21 02:04:28;;;;;;;14.23;7.55;;;;;;;;;;5134695;27;20684;-54
2023/06/21 02:06:56;;;;;;;12.20;7.78;;;;;;;;;;5099665;27;20225;-54
2023/06/21 02:09:23;;;;;;;10.43;7.65;;;;;;;;;;5134860;27;20205;-53
2023/06/21 02:11:52;;;;;;;13.85;8.52;;;;;;;;;;5099929;27;20193;-54
2023/06/21 02:14:20;;;;;;;10.40;7.60;;;;;;;;;;5116594;27;20296;-54
2023/06/21 02:16:47;;;;;;;14.50;8.93;;;;;;;;;;5116460;27;20571;-55
2023/06/21 02:19:17;;;;;;;10.93;7.07;;;;;;;;;;5116120;27;20648;-55
2023/06/21 02:21:44;;;;;;;17.77;7.88;;;;;;;;;;5116485;27;20240;-56
2023/06/21 02:24:13;;;;;;;15.10;8.23;;;;;;;;;;5134654;27;20201;-55
2023/06/21 02:26:41;;;;;;;18.17;8.35;;;;;;;;;;5134259;27;20763;-55
2023/06/21 02:29:11;;;;;;;13.45;8.32;;;;;;;;;;5116228;28;20205;-55
2023/06/21 02:31:39;;;;;;;11.57;7.53;;;;;;;;;;5116292;27;20193;-56
2023/06/21 02:34:06;;;;;;;15.02;7.00;;;;;;;;;;5134938;27;20197;-54
2023/06/21 02:36:35;;;;;;;16.52;7.70;;;;;;;;;;5134709;27;20208;-55
2023/06/21 02:39:04;;;;;;;12.25;8.27;;;;;;;;;;5134527;27;20709;-55
2023/06/21 02:41:32;;;;;;;11.68;8.43;;;;;;;;;;5134526;27;20209;-55
2023/06/21 02:43:59;;;;;;;12.40;8.15;;;;;;;;;;5116153;27;20201;-55
2023/06/21 02:46:26;;;;;;;14.52;8.00;;;;;;;;;;5116288;28;20232;-55
2023/06/21 02:48:53;;;;;;;15.27;7.85;;;;;;;;;;5134649;28;20250;-55
2023/06/21 02:51:21;;;;;;;14.73;8.10;;;;;;;;;;5134585;28;20567;-55
2023/06/21 02:53:48;;;;;;;12.90;7.57;;;;;;;;;;5136919;27;20734;-57
2023/06/21 02:56:15;;;;;;;16.77;8.10;;;;;;;;;;5139107;27;20205;-55
2023/06/21 02:58:42;;;;;;;12.80;8.10;;;;;;;;;;5120187;27;20594;-54
2023/06/21 03:01:10;;;;;;;16.60;8.10;;;;;;;;;;5138805;27;20212;-56
2023/06/21 03:03:44;;;;;;;19.45;9.18;;;;;;;;;;5120253;27;20283;-54
2023/06/21 03:06:11;;;;;;;15.40;9.88;;;;;;;;;;5138651;27;20193;-54
2023/06/21 03:08:39;;;;;;;13.73;8.55;;;;;;;;;;5120037;27;20288;-56
2023/06/21 03:11:08;;;;;;;13.93;9.07;;;;;;;;;;5154376;27;20241;-55
2023/06/21 03:13:37;;;;;;;15.60;9.68;;;;;;;;;;5120289;27;20310;-54
2023/06/21 03:16:04;;;;;;;14.13;10.00;;;;;;;;;;5120795;27;20197;-54
2023/06/21 03:18:32;;;;;;;18.50;10.55;;;;;;;;;;5119949;27;20208;-55
2023/06/21 03:21:02;;;;;;;14.02;9.88;;;;;;;;;;5138109;27;20696;-54
2023/06/21 03:23:31;;;;;;;17.20;10.68;;;;;;;;;;5120151;27;20178;-53
2023/06/21 03:25:58;;;;;;;13.40;9.95;;;;;;;;;;5118079;27;20212;-55
2023/06/21 03:28:25;;;;;;;14.82;10.13;;;;;;;;;;5128445;27;20240;-56
2023/06/21 03:30:53;;;;;;;20.65;10.77;;;;;;;;;;5117630;28;20202;-54
2023/06/21 03:33:20;;;;;;;23.05;10.68;;;;;;;;;;5114994;27;20205;-53
2023/06/21 03:35:47;;;;;;;16.13;11.23;;;;;;;;;;5137517;27;20224;-56
2023/06/21 03:38:14;;;;;;;19.80;11.68;;;;;;;;;;5138165;27;20261;-54
2023/06/21 03:40:42;;;;;;;15.30;10.82;;;;;;;;;;5069155;27;20209;-54
2023/06/21 03:43:10;;;;;;;16.13;12.18;;;;;;;;;;5119371;27;20648;-53
2023/06/21 03:45:39;;;;;;;17.90;12.55;;;;;;;;;;5119852;27;20198;-54
2023/06/21 03:48:08;;;;;;;17.45;11.10;;;;;;;;;;5119478;27;20226;-56
2023/06/21 03:50:37;;;;;;;19.98;12.65;;;;;;;;;;5119327;27;20212;-50
2023/06/21 03:53:04;;;;;;;18.20;12.18;;;;;;;;;;5153794;27;20220;-48
2023/06/21 03:55:31;;;;;;;18.45;12.75;;;;;;;;;;5119570;27;20561;-50
2023/06/21 03:57:59;;;;;;;18.05;11.98;;;;;;;;;;5102527;27;20287;-50
2023/06/21 04:00:26;;;;;;;19.10;12.50;;;;;;;;;;5119075;27;20656;-49
2023/06/21 04:02:54;;;;;;;25.70;12.57;;;;;;;;;;5114997;27;20209;-53
2023/06/21 04:05:22;;;;;;;21.52;12.30;;;;;;;;;;5125408;27;20237;-51
2023/06/21 04:07:49;;;;;;;19.45;12.43;;;;;;;;;;5136105;27;20237;-49
2023/06/21 04:10:16;;;;;;;18.75;12.98;;;;;;;;;;5118184;27;20217;-51
2023/06/21 04:12:43;;;;;;;20.60;13.20;;;;;;;;;;5127786;27;20577;-50
2023/06/21 04:15:12;;;;;;;18.40;13.13;;;;;;;;;;5128413;27;20218;-48
2023/06/21 04:17:39;;;;;;;22.13;13.07;;;;;;;;;;5109457;27;20221;-49
2023/06/21 04:20:11;;;;;;;18.52;13.07;;;;;;;;;;5113619;27;20216;-51
2023/06/21 04:22:40;;;;;;;18.77;12.65;;;;;;;;;;5132069;27;20696;-49
2023/06/21 04:25:09;;;;;;;17.48;11.52;;;;;;;;;;5117818;27;20213;-51
2023/06/21 04:27:36;;;;;;;22.58;13.00;;;;;;;;;;5144048;27;20238;-49
2023/06/21 04:30:04;;;;;;;18.58;12.18;;;;;;;;;;5135982;27;20217;-49
2023/06/21 04:32:31;;;;;;;20.15;13.43;;;;;;;;;;5136219;27;20225;-49
2023/06/21 04:34:59;;;;;;;17.67;12.13;;;;;;;;;;5135413;27;20277;-48
2023/06/21 04:37:28;;;;;;;17.40;12.52;;;;;;;;;;5115499;28;20712;-48
2023/06/21 04:39:56;;;;;;;19.70;13.20;;;;;;;;;;5096300;28;20708;-53
2023/06/21 04:42:44;;;;;;;17.48;12.25;;;;;;;;;;5114026;28;20700;-48
2023/06/21 04:45:15;;;;;;;23.08;13.73;;;;;;;;;;5115628;28;20693;-51
2023/06/21 04:47:46;;;;;;;20.27;13.57;;;;;;;;;;5114588;27;20763;-50
2023/06/21 04:50:15;;;;;;;19.60;12.55;;;;;;;;;;5138958;27;20217;-48
2023/06/21 04:52:49;;;;;;;16.95;12.93;;;;;;;;;;5132707;27;20240;-49
2023/06/21 04:55:18;;;;;;;22.20;14.05;;;;;;;;;;5128309;27;20214;-48
2023/06/21 04:57:46;;;;;;;18.27;13.05;;;;;;;;;;5117677;27;20715;-50
2023/06/21 05:00:15;;;;;;;18.67;12.50;;;;;;;;;;5135600;27;20221;-49
2023/06/21 05:02:42;;;;;;;18.33;12.18;;;;;;;;;;5135702;27;20274;-49
2023/06/21 05:05:09;;;;;;;16.92;12.13;;;;;;;;;;5135102;27;20232;-49
2023/06/21 05:07:38;;;;;;;18.52;12.55;;;;;;;;;;5134188;27;20233;-48
2023/06/21 05:10:07;;;;;;;16.77;11.52;;;;;;;;;;5131135;27;20218;-49
2023/06/21 05:12:35;;;;;;;18.35;12.05;;;;;;;;;;5128301;27;20239;-51
2023/06/21 05:15:03;;;;;;;17.85;12.30;;;;;;;;;;5129568;27;20221;-51
2023/06/21 05:17:30;;;;;;;15.88;10.85;;;;;;;;;;5125992;27;20215;-52
2023/06/21 05:19:57;;;;;;;14.98;11.15;;;;;;;;;;5131388;27;20217;-55
2023/06/21 05:22:24;;;;;;;14.60;10.77;;;;;;;;;;5133020;27;20684;-54
2023/06/21 05:24:52;;;;;;;15.90;11.60;;;;;;;;;;5134597;27;20201;-51
2023/06/21 05:27:19;;;;;;;13.85;10.48;;;;;;;;;;5134991;27;20684;-51
2023/06/21 05:29:46;;;;;;;14.20;10.55;;;;;;;;;;5135616;27;20204;-55
2023/06/21 05:32:13;;;;;;;14.15;9.93;;;;;;;;;;5135965;27;20265;-57
2023/06/21 05:34:40;;;;;;;18.95;10.82;;;;;;;;;;5135803;27;20201;-57
2023/06/21 05:37:07;;;;;;;14.80;11.20;;;;;;;;;;5135727;27;20205;-56
2023/06/21 05:39:35;;;;;;;13.50;9.75;;;;;;;;;;5135451;27;20679;-56
2023/06/21 05:42:02;;;;;;;13.13;9.93;;;;;;;;;;5135362;27;20199;-56
2023/06/21 05:44:29;;;;;;;13.00;10.10;;;;;;;;;;5135636;27;20202;-57
2023/06/21 05:46:56;;;;;;;14.38;9.88;;;;;;;;;;5135532;27;20228;-57
2023/06/21 05:49:23;;;;;;;14.38;9.50;;;;;;;;;;5135523;27;20208;-57
2023/06/21 05:51:50;;;;;;;12.23;9.30;;;;;;;;;;5135294;27;20193;-56
2023/06/21 05:54:18;;;;;;;11.95;9.75;;;;;;;;;;5135444;27;20205;-57
2023/06/21 05:56:45;;;;;;;11.23;8.90;;;;;;;;;;5135676;27;20205;-57
2023/06/21 05:59:12;;;;;;;11.10;8.05;;;;;;;;;;5135098;27;20560;-57
2023/06/21 06:01:39;;;;;;;12.05;7.63;;;;;;;;;;5135236;27;20197;-57
2023/06/21 06:04:07;;;;;;;9.60;7.50;;;;;;;;;;5134995;27;20278;-58
2023/06/21 06:06:37;;;;;;;7.60;6.20;;;;;;;;;;5135250;27;20205;-57
2023/06/21 06:09:05;;;;;;;8.50;6.68;;;;;;;;;;5135277;27;20599;-57
2023/06/21 06:11:32;;;;;;;8.15;6.85;;;;;;;;;;5134830;27;20201;-57
2023/06/21 06:13:59;;;;;;;8.52;7.05;;;;;;;;;;5134422;27;20250;-58
2023/06/21 06:16:26;;;;;;;7.85;6.70;;;;;;;;;;5134785;27;20201;-58
2023/06/21 06:18:53;;;;;;;10.10;7.32;;;;;;;;;;5134281;27;20233;-57
2023/06/21 06:21:21;;;;;;;9.27;6.82;;;;;;;;;;5131790;27;20947;-56
2023/06/21 06:23:50;;;;;;;10.90;7.28;;;;;;;;;;5123980;27;20675;-58
2023/06/21 06:26:22;;;;;;;9.95;7.00;;;;;;;;;;5133416;27;20292;-57
2023/06/21 06:28:51;;;;;;;8.20;6.82;;;;;;;;;;5115774;28;20216;-57
2023/06/21 06:31:23;;;;;;;9.10;6.82;;;;;;;;;;5133511;27;20247;-58
2023/06/21 06:33:51;;;;;;;10.18;7.60;;;;;;;;;;5134004;27;20185;-58
2023/06/21 06:36:18;;;;;;;10.02;7.05;;;;;;;;;;5133687;27;20682;-58
2023/06/21 06:38:47;;;;;;;11.07;7.45;;;;;;;;;;5134506;27;20205;-58
2023/06/21 06:41:15;;;;;;;9.57;6.97;;;;;;;;;;5134661;27;20204;-56
2023/06/21 06:43:43;;;;;;;9.73;7.78;;;;;;;;;;5134355;27;20201;-58
2023/06/21 06:46:10;;;;;;;9.65;7.20;;;;;;;;;;5134361;27;20205;-57
2023/06/21 06:48:38;;;;;;;9.82;7.40;;;;;;;;;;5134223;28;20232;-57
2023/06/21 06:51:05;;;;;;;10.30;6.55;;;;;;;;;;5115613;28;20197;-58
2023/06/21 06:53:32;;;;;;;8.88;6.63;;;;;;;;;;5134398;28;20205;-58
2023/06/21 06:55:59;;;;;;;9.27;6.50;;;;;;;;;;5134503;28;20193;-58
2023/06/21 06:58:28;;;;;;;9.40;7.03;;;;;;;;;;5134174;28;20201;-57
2023/06/21 07:00:55;;;;;;;8.52;6.93;;;;;;;;;;5134257;28;20601;-58
2023/06/21 07:03:23;;;;;;;9.32;7.30;;;;;;;;;;5134090;28;20201;-58
2023/06/21 07:05:50;;;;;;;8.95;7.10;;;;;;;;;;5134570;28;20229;-58
2023/06/21 07:08:18;;;;;;;8.75;6.28;;;;;;;;;;5134386;28;20229;-58
2023/06/21 07:10:45;;;;;;;8.10;6.45;;;;;;;;;;5134473;28;20224;-58
2023/06/21 07:13:13;;;;;;;7.20;5.88;;;;;;;;;;5134363;28;20204;-58
2023/06/21 07:15:40;;;;;;;7.30;5.78;;;;;;;;;;5133975;28;20205;-58
2023/06/21 07:18:07;;;;;;;6.82;5.60;;;;;;;;;;5134255;28;20204;-58
2023/06/21 07:20:34;;;;;;;6.13;5.50;;;;;;;;;;5133910;28;20559;-57
2023/06/21 07:23:03;;;;;;;7.03;5.43;;;;;;;;;;5133823;28;20198;-58
2023/06/21 07:25:30;;;;;;;7.72;6.10;;;;;;;;;;5134343;28;20284;-58
2023/06/21 07:27:57;;;;;;;6.82;5.60;;;;;;;;;;5133798;28;20221;-58
2023/06/21 07:30:24;;;;;;;7.07;5.93;;;;;;;;;;5133832;28;20615;-57
2023/06/21 07:32:52;;;;;;;6.35;5.05;;;;;;;;;;5133878;28;20672;-57
2023/06/21 07:35:19;;;;;;;5.85;4.88;;;;;;;;;;5134182;28;20242;-57
2023/06/21 07:37:47;;;;;;;5.90;4.90;;;;;;;;;;5134102;28;20205;-57
2023/06/21 07:40:14;;;;;;;6.20;5.47;;;;;;;;;;5136477;27;20677;-58
2023/06/21 07:42:42;;;;;;;8.57;5.72;;;;;;;;;;5137649;27;20197;-58
2023/06/21 07:45:09;;;;;;;6.80;5.30;;;;;;;;;;5137634;27;20566;-58
2023/06/21 07:47:36;;;;;;;8.38;5.40;;;;;;;;;;5137178;27;20237;-58
2023/06/21 07:50:04;;;;;;;8.82;5.68;;;;;;;;;;5137504;27;20603;-58
2023/06/21 07:52:48;;;;;;;7.70;5.90;;;;;;;;;;5137560;27;20928;-58
2023/06/21 07:55:15;;;;;;;6.18;5.00;;;;;;;;;;5137723;27;20193;-58
2023/06/21 07:57:43;;;;;;;8.30;5.80;;;;;;;;;;5137361;27;20201;-58
2023/06/21 08:00:11;;;;;;;6.22;5.15;;;;;;;;;;5137251;27;20717;-58
2023/06/21 08:02:44;;;;;;;6.88;5.10;;;;;;;;;;5136852;27;20189;-58
2023/06/21 08:05:13;;;;;;;6.60;4.88;;;;;;;;;;5137331;27;20225;-58
2023/06/21 08:07:41;;;;;;;6.53;5.18;;;;;;;;;;5137537;27;20197;-58
2023/06/21 08:10:09;;;;;;;6.20;5.30;;;;;;;;;;5137514;27;20223;-58
2023/06/21 08:12:36;;;;;;;6.53;5.18;;;;;;;;;;5137211;27;20198;-58
2023/06/21 08:15:05;;;;;;;5.40;4.40;;;;;;;;;;5136719;27;20223;-58
2023/06/21 08:17:33;;;;;;;7.65;5.15;;;;;;;;;;5137166;27;20189;-57
2023/06/21 08:20:01;;;;;;;6.35;4.75;;;;;;;;;;5137911;27;20258;-57
2023/06/21 08:22:28;;;;;;;7.70;5.40;;;;;;;;;;5136958;27;20273;-56
2023/06/21 08:24:58;;;;;;;8.30;5.70;;;;;;;;;;5137390;27;20285;-56
2023/06/21 08:27:25;;;;;;;7.15;5.53;;;;;;;;;;5136281;27;20235;-56
2023/06/21 08:29:52;;;;;;;5.20;4.43;;;;;;;;;;5136941;27;20233;-55
2023/06/21 08:32:20;;;;;;;5.90;5.30;;;;;;;;;;5136804;27;20194;-54
2023/06/21 08:34:47;;;;;;;6.90;5.25;;;;;;;;;;5136979;27;20201;-56
2023/06/21 08:37:14;;;;;;;6.30;4.97;;;;;;;;;;5136783;27;20212;-55
2023/06/21 08:39:41;;;;;;;6.28;5.07;;;;;;;;;;5136943;27;20296;-55
2023/06/21 08:42:09;;;;;;;8.32;5.55;;;;;;;;;;5136933;27;20193;-56
2023/06/21 08:44:36;;;;;;;6.13;4.68;;;;;;;;;;5136232;27;20201;-56
2023/06/21 08:47:04;;;;;;;6.80;5.22;;;;;;;;;;5136744;27;20198;-56
2023/06/21 08:49:34;;;;;;;6.10;4.95;;;;;;;;;;5118163;27;20564;-55
2023/06/21 08:52:02;;;;;;;8.05;5.80;;;;;;;;;;5117647;27;20254;-56
2023/06/21 08:54:30;;;;;;;6.82;5.38;;;;;;;;;;5118392;27;20197;-55
2023/06/21 08:57:07;;;;;;;9.30;5.25;;;;;;;;;;5118278;27;20205;-55
2023/06/21 08:59:41;;;;;;;5.82;5.03;;;;;;;;;;5118774;27;20209;-56
2023/06/21 09:02:21;;;;;;;5.47;4.72;;;;;;;;;;5136505;27;20200;-54
2023/06/21 09:04:49;;;;;;;9.95;5.50;;;;;;;;;;5118444;27;20229;-54
2023/06/21 09:07:17;;;;;;;6.75;4.72;;;;;;;;;;5118012;27;20220;-55
2023/06/21 09:09:45;;;;;;;8.30;5.70;;;;;;;;;;5135903;27;20248;-56
2023/06/21 09:12:16;;;;;;;7.80;5.63;;;;;;;;;;5136004;27;20702;-55
2023/06/21 09:14:43;;;;;;;5.25;4.75;;;;;;;;;;5136226;27;20589;-56
2023/06/21 09:17:13;;;;;;;6.60;5.25;;;;;;;;;;5136069;27;20227;-55
2023/06/21 09:19:42;;;;;;;7.70;5.45;;;;;;;;;;5135935;27;20216;-55
2023/06/21 09:22:11;;;;;;;4.57;4.13;;;;;;;;;;5136518;27;20205;-56
2023/06/21 09:24:37;;;;;;;5.55;4.80;;;;;;;;;;5117953;27;20204;-55
2023/06/21 09:27:05;;;;;;;6.00;4.97;;;;;;;;;;5136068;27;20239;-55
2023/06/21 09:29:32;;;;;;;5.00;4.30;;;;;;;;;;5135767;27;20236;-56
2023/06/21 09:32:01;;;;;;;6.63;4.68;;;;;;;;;;5117787;27;20194;-56
2023/06/21 09:34:28;;;;;;;6.38;5.05;;;;;;;;;;5135609;27;20200;-53
2023/06/21 09:36:56;;;;;;;8.25;5.30;;;;;;;;;;5135504;27;20664;-55
2023/06/21 09:39:27;;;;;;;5.78;4.95;;;;;;;;;;5135415;27;20208;-55
2023/06/21 09:41:55;;;;;;;6.05;5.00;;;;;;;;;;5135881;27;20201;-56
2023/06/21 09:44:23;;;;;;;6.75;5.30;;;;;;;;;;5135630;27;20648;-56
2023/06/21 09:46:57;;;;;;;6.90;5.57;;;;;;;;;;5135392;27;20591;-55
2023/06/21 09:49:27;;;;;;;6.50;5.32;;;;;;;;;;5117839;27;20209;-56
2023/06/21 09:51:55;;;;;;;6.55;5.53;;;;;;;;;;5135435;27;20197;-56
2023/06/21 09:54:23;;;;;;;6.30;5.10;;;;;;;;;;5135172;27;20197;-55
2023/06/21 09:56:50;;;;;;;5.75;4.93;;;;;;;;;;5135213;27;20205;-56
2023/06/21 09:59:20;;;;;;;5.57;4.97;;;;;;;;;;5135172;27;20664;-56
2023/06/21 10:01:50;;;;;;;6.65;5.28;;;;;;;;;;5134755;27;20253;-55
2023/06/21 10:04:17;;;;;;;5.60;4.95;;;;;;;;;;5135259;27;20244;-54
2023/06/21 10:06:54;;;;;;;6.03;4.60;;;;;;;;;;5135239;27;20205;-54
2023/06/21 10:09:21;;;;;;;6.15;4.90;;;;;;;;;;5135211;27;20304;-55
2023/06/21 10:11:49;;;;;;;5.93;4.57;;;;;;;;;;5134954;27;20213;-56
2023/06/21 10:14:23;;;;;;;5.97;4.32;;;;;;;;;;5134859;27;20307;-56
2023/06/21 10:16:54;;;;;;;4.95;4.38;;;;;;;;;;5135184;27;20174;-55
2023/06/21 10:19:25;;;;;;;8.23;4.75;;;;;;;;;;5135205;27;20201;-54
2023/06/21 10:22:10;;;;;;;5.20;4.53;;;;;;;;;;5135251;27;20208;-56
2023/06/21 10:24:48;;;;;;;5.15;4.57;;;;;;;;;;5134893;27;20211;-55
2023/06/21 10:27:21;;;;;;;6.07;4.78;;;;;;;;;;5134887;27;20205;-56
2023/06/21 10:29:53;;;;;;;5.25;4.50;;;;;;;;;;5134611;27;20240;-53
2023/06/21 10:32:21;;;;;;;7.28;4.18;;;;;;;;;;5134819;27;20201;-55
2023/06/21 10:34:57;;;;;;;4.68;4.25;;;;;;;;;;5134650;27;20229;-55
2023/06/21 10:37:36;;;;;;;4.57;4.15;;;;;;;;;;5134543;27;20197;-56
2023/06/21 10:40:06;;;;;;;5.35;4.40;;;;;;;;;;5134852;27;20295;-55
2023/06/21 10:42:38;;;;;;;5.07;4.40;;;;;;;;;;5134562;27;20204;-56
2023/06/21 10:45:08;;;;;;;4.75;3.67;;;;;;;;;;5134412;27;20712;-55
2023/06/21 10:47:37;;;;;;;5.75;3.97;;;;;;;;;;5134242;27;20206;-55
2023/06/21 10:50:06;;;;;;;4.57;3.92;;;;;;;;;;5134564;28;20221;-54
2023/06/21 10:52:34;;;;;;;5.13;4.10;;;;;;;;;;5134305;28;20197;-54
2023/06/21 10:55:02;;;;;;;4.80;3.92;;;;;;;;;;5134360;28;20205;-53
2023/06/21 10:57:31;;;;;;;5.22;4.22;;;;;;;;;;5134326;28;20674;-54
2023/06/21 11:00:04;;;;;;;5.85;3.85;;;;;;;;;;5134634;28;20291;-55
2023/06/21 11:02:32;;;;;;;4.73;3.90;;;;;;;;;;5133848;28;20939;-43
2023/06/21 11:05:18;;;;;;;4.35;3.58;;;;;;;;;;5134631;28;21038;-60
2023/06/21 11:07:58;;;;;;;3.67;3.28;;;;;;;;;;5134535;28;20194;-60
2023/06/21 11:10:49;;;;;;;5.43;4.05;;;;;;;;;;5134130;28;20221;-60
2023/06/21 11:13:17;;;;;;;4.95;3.92;;;;;;;;;;5134387;27;20205;-60
2023/06/21 11:15:46;;;;;;;6.30;3.58;;;;;;;;;;5120886;27;20546;-60
2023/06/21 11:18:20;;;;;;;4.95;3.88;;;;;;;;;;5138390;27;20197;-61
2023/06/21 11:20:52;;;;;;;4.75;3.35;;;;;;;;;;5138582;27;20181;-60
2023/06/21 11:23:25;;;;;;;3.80;3.40;;;;;;;;;;5120364;27;20221;-60
2023/06/21 11:26:01;;;;;;;10.35;3.70;;;;;;;;;;5138161;27;20213;-60
2023/06/21 11:28:32;;;;;;;4.95;3.60;;;;;;;;;;5138356;27;20224;-50
2023/06/21 11:31:09;;;;;;;4.88;3.65;;;;;;;;;;5138184;27;20232;-47
2023/06/21 11:33:48;;;;;;;3.47;3.03;;;;;;;;;;5138250;27;20224;-46
2023/06/21 11:36:18;;;;;;;4.90;3.85;;;;;;;;;;5137968;27;20641;-49
2023/06/21 11:38:50;;;;;;;4.65;4.10;;;;;;;;;;5138147;27;20675;-51
2023/06/21 11:41:53;;;;;;;4.97;3.90;;;;;;;;;;5138121;27;20258;-53
2023/06/21 11:44:22;;;;;;;4.13;3.47;;;;;;;;;;5137524;27;20212;-54
2023/06/21 11:46:50;;;;;;;4.47;3.45;;;;;;;;;;5138216;27;20205;-48
2023/06/21 11:49:17;;;;;;;3.75;2.90;;;;;;;;;;5137625;27;20720;-60
2023/06/21 11:52:05;;;;;;;4.82;3.55;;;;;;;;;;5138136;27;20205;-58
2023/06/21 11:54:34;;;;;;;4.85;3.90;;;;;;;;;;5137848;27;20200;-60
2023/06/21 11:57:07;;;;;;;4.03;3.63;;;;;;;;;;5137852;27;20280;-58
2023/06/21 11:59:35;;;;;;;4.13;3.50;;;;;;;;;;5137553;27;20202;-59
2023/06/21 12:02:13;;;;;;;5.88;3.88;;;;;;;;;;5137531;27;20228;-59
2023/06/21 12:04:41;;;;;;;5.10;3.95;;;;;;;;;;5101542;27;20240;-58
2023/06/21 12:07:09;;;;;;;6.53;4.20;;;;;;;;;;5137274;27;20204;-57
2023/06/21 12:09:39;;;;;;;3.97;3.40;;;;;;;;;;5137467;27;20236;-59
2023/06/21 12:12:07;;;;;;;6.20;4.40;;;;;;;;;;5137232;27;20664;-59
2023/06/21 12:14:35;;;;;;;4.57;3.58;;;;;;;;;;5137331;27;20197;-58
2023/06/21 12:17:02;;;;;;;5.53;4.10;;;;;;;;;;5137113;27;20208;-58
2023/06/21 12:19:31;;;;;;;5.63;3.97;;;;;;;;;;5137107;27;20676;-58
2023/06/21 12:22:00;;;;;;;5.28;3.92;;;;;;;;;;5136988;27;20205;-58
2023/06/21 12:24:29;;;;;;;5.38;3.83;;;;;;;;;;5136992;27;20205;-58
2023/06/21 12:26:57;;;;;;;5.95;3.58;;;;;;;;;;5137241;27;20201;-58
2023/06/21 12:29:27;;;;;;;5.65;4.30;;;;;;;;;;5137034;27;20226;-58
2023/06/21 12:31:57;;;;;;;4.43;3.70;;;;;;;;;;5136227;27;20205;-54
2023/06/21 12:34:26;;;;;;;4.45;3.78;;;;;;;;;;5134730;27;20193;-58
2023/06/21 12:36:55;;;;;;;4.10;3.40;;;;;;;;;;5136764;27;20193;-58
2023/06/21 12:39:22;;;;;;;4.38;3.97;;;;;;;;;;5133160;27;20559;-59
2023/06/21 12:41:50;;;;;;;4.43;3.75;;;;;;;;;;5135013;27;20225;-60
2023/06/21 12:44:21;;;;;;;5.70;3.78;;;;;;;;;;5132271;27;20210;-59
2023/06/21 12:46:50;;;;;;;5.05;3.75;;;;;;;;;;5135225;27;20223;-58
2023/06/21 12:49:18;;;;;;;4.30;3.50;;;;;;;;;;5132036;27;20602;-60
2023/06/21 12:51:46;;;;;;;5.53;4.30;;;;;;;;;;5135166;27;20224;-58
2023/06/21 12:54:20;;;;;;;5.40;4.20;;;;;;;;;;5134673;27;20237;-59
2023/06/21 12:56:50;;;;;;;4.65;4.00;;;;;;;;;;5132047;27;20218;-59
2023/06/21 12:59:18;;;;;;;5.57;4.18;;;;;;;;;;5098409;27;20221;-58
2023/06/21 13:01:45;;;;;;;4.60;3.72;;;;;;;;;;5133899;27;20683;-59
2023/06/21 13:04:14;;;;;;;5.63;3.95;;;;;;;;;;5134420;27;20703;-58
2023/06/21 13:06:42;;;;;;;8.60;3.90;;;;;;;;;;5135430;27;20244;-58
2023/06/21 13:09:10;;;;;;;5.03;4.00;;;;;;;;;;5134892;27;20290;-58
2023/06/21 13:11:38;;;;;;;5.03;3.80;;;;;;;;;;5124627;27;20213;-59
2023/06/21 13:14:06;;;;;;;6.20;3.63;;;;;;;;;;5123107;27;20232;-58
2023/06/21 13:16:34;;;;;;;4.65;3.60;;;;;;;;;;5134881;27;20220;-58
2023/06/21 13:19:01;;;;;;;6.55;3.55;;;;;;;;;;5134632;27;20221;-59
2023/06/21 13:21:28;;;;;;;5.18;3.92;;;;;;;;;;5131783;27;20269;-58
2023/06/21 13:23:59;;;;;;;4.93;3.83;;;;;;;;;;5134084;27;20721;-59
2023/06/21 13:26:27;;;;;;;4.90;3.90;;;;;;;;;;5134784;27;20221;-56
2023/06/21 13:28:54;;;;;;;5.13;3.97;;;;;;;;;;5134594;27;20230;-59
2023/06/21 13:31:21;;;;;;;4.07;3.65;;;;;;;;;;5134580;27;20473;-58
2023/06/21 13:33:52;;;;;;;4.28;3.38;;;;;;;;;;5132106;27;20225;-57
2023/06/21 13:36:19;;;;;;;5.07;3.80;;;;;;;;;;5133210;27;20224;-58
2023/06/21 13:38:46;;;;;;;5.05;3.70;;;;;;;;;;5134030;27;20551;-58
2023/06/21 13:41:13;;;;;;;7.18;3.80;;;;;;;;;;5134488;27;20213;-58
2023/06/21 13:43:40;;;;;;;5.13;4.00;;;;;;;;;;5135027;27;20228;-57
2023/06/21 13:46:07;;;;;;;5.47;3.90;;;;;;;;;;5134512;27;20243;-58
2023/06/21 13:48:35;;;;;;;4.32;3.60;;;;;;;;;;5134373;27;20205;-58
2023/06/21 13:51:02;;;;;;;3.53;3.08;;;;;;;;;;5123524;27;20221;-58
2023/06/21 13:53:29;;;;;;;4.07;3.42;;;;;;;;;;5133401;27;20221;-59
2023/06/21 13:55:57;;;;;;;5.00;3.88;;;;;;;;;;5133005;27;20248;-58
2023/06/21 13:58:26;;;;;;;5.78;3.92;;;;;;;;;;5134285;27;20220;-59
2023/06/21 14:00:53;;;;;;;5.20;3.88;;;;;;;;;;5132896;27;20197;-58
2023/06/21 14:03:21;;;;;;;4.45;3.85;;;;;;;;;;5134330;27;20664;-57
2023/06/21 14:05:48;;;;;;;4.82;3.53;;;;;;;;;;5135213;27;20304;-58
2023/06/21 14:08:16;;;;;;;5.10;4.00;;;;;;;;;;5081138;27;20554;-57
2023/06/21 14:10:44;;;;;;;6.40;4.10;;;;;;;;;;5134645;27;20253;-58
2023/06/21 14:13:13;;;;;;;4.32;3.80;;;;;;;;;;5133676;27;20205;-57
2023/06/21 14:15:40;;;;;;;3.92;3.53;;;;;;;;;;5134776;27;20254;-58
2023/06/21 14:18:09;;;;;;;6.03;3.95;;;;;;;;;;5134436;27;20197;-58
2023/06/21 14:20:38;;;;;;;4.35;3.63;;;;;;;;;;5127075;27;20205;-57
2023/06/21 14:23:05;;;;;;;5.60;3.88;;;;;;;;;;5132441;27;20215;-58
2023/06/21 14:25:32;;;;;;;4.70;3.60;;;;;;;;;;5134801;27;20250;-58
2023/06/21 14:28:00;;;;;;;5.10;3.47;;;;;;;;;;5131771;27;20198;-57
2023/06/21 14:30:27;;;;;;;4.53;3.63;;;;;;;;;;5134806;27;20246;-57
2023/06/21 14:32:55;;;;;;;4.78;3.70;;;;;;;;;;5134815;27;20197;-57
2023/06/21 14:35:22;;;;;;;4.35;3.03;;;;;;;;;;5133069;27;20280;-57
2023/06/21 14:37:52;;;;;;;3.97;3.40;;;;;;;;;;5133151;27;20205;-57
2023/06/21 14:40:19;;;;;;;4.90;3.95;;;;;;;;;;5132593;27;20261;-57
2023/06/21 14:42:46;;;;;;;4.70;3.47;;;;;;;;;;5134133;27;20212;-58
2023/06/21 14:45:13;;;;;;;4.70;3.50;;;;;;;;;;5132935;27;20201;-57
2023/06/21 14:47:40;;;;;;;9.07;3.95;;;;;;;;;;5134136;27;20213;-57